createdAt,value
2023-04-03T00:00:29.904Z,81
2023-04-03T00:01:36.988Z,81
2023-04-03T00:02:44.384Z,81
2023-04-03T00:03:51.321Z,81
2023-04-03T00:04:58.144Z,81
2023-04-03T00:06:04.891Z,81
2023-04-03T00:07:11.998Z,81
2023-04-03T00:08:19.449Z,81
2023-04-03T00:09:26.165Z,81
2023-04-03T00:10:33.330Z,81
2023-04-03T00:11:39.794Z,81
2023-04-03T00:12:46.999Z,81
2023-04-03T00:13:54.154Z,81
2023-04-03T00:15:01.221Z,81
2023-04-03T00:16:08.160Z,81
2023-04-03T00:17:14.959Z,81
2023-04-03T00:18:22.033Z,81
2023-04-03T00:19:29.087Z,81
2023-04-03T00:20:36.459Z,81
2023-04-03T00:21:43.267Z,81
2023-04-03T00:22:49.928Z,81
2023-04-03T00:23:57.006Z,81
2023-04-03T00:25:04.050Z,81
2023-04-03T00:26:11.185Z,81
2023-04-03T00:27:18.169Z,81
2023-04-03T00:28:24.928Z,81
2023-04-03T00:29:32.025Z,81
2023-04-03T00:30:39.404Z,81
2023-04-03T00:31:46.106Z,82
2023-04-03T00:32:53.378Z,82
2023-04-03T00:33:59.853Z,82
2023-04-03T00:35:07.001Z,82
2023-04-03T00:36:14.266Z,82
2023-04-03T00:37:21.250Z,82
2023-04-03T00:38:28.328Z,82
2023-04-03T00:39:34.933Z,82
2023-04-03T00:40:42.030Z,82
2023-04-03T00:41:49.089Z,82
2023-04-03T00:42:56.126Z,82
2023-04-03T00:44:03.391Z,82
2023-04-03T00:45:09.791Z,82
2023-04-03T00:46:17.046Z,82
2023-04-03T00:47:24.155Z,82
2023-04-03T00:48:31.267Z,82
2023-04-03T00:50:44.797Z,82
2023-04-03T00:51:51.981Z,82
2023-04-03T00:52:59.145Z,82
2023-04-03T00:54:06.343Z,82
2023-04-03T00:55:12.723Z,82
2023-04-03T00:56:19.980Z,82
2023-04-03T00:57:27.107Z,82
2023-04-03T00:58:34.085Z,82
2023-04-03T01:00:47.805Z,82
2023-04-03T01:01:55.179Z,82
2023-04-03T01:03:01.962Z,82
2023-04-03T01:04:09.045Z,82
2023-04-03T01:05:16.278Z,82
2023-04-03T01:06:22.758Z,82
2023-04-03T01:07:29.900Z,82
2023-04-03T01:08:37.552Z,82
2023-04-03T01:09:44.211Z,82
2023-04-03T01:10:51.203Z,82
2023-04-03T01:11:57.722Z,82
2023-04-03T01:13:04.961Z,82
2023-04-03T01:14:11.988Z,83
2023-04-03T01:15:19.231Z,83
2023-04-03T01:16:26.376Z,83
2023-04-03T01:17:32.934Z,82
2023-04-03T01:18:39.949Z,83
2023-04-03T01:19:47.162Z,83
2023-04-03T01:20:54.064Z,82
2023-04-03T01:22:01.287Z,82
2023-04-03T01:23:07.900Z,82
2023-04-03T01:24:15.035Z,82
2023-04-03T01:25:22.032Z,82
2023-04-03T01:26:29.121Z,82
2023-04-03T01:27:36.685Z,82
2023-04-03T01:28:42.753Z,82
2023-04-03T01:29:49.928Z,83
2023-04-03T01:30:56.976Z,83
2023-04-03T01:32:04.200Z,83
2023-04-03T01:33:11.208Z,83
2023-04-03T01:34:17.777Z,83
2023-04-03T01:35:24.878Z,83
2023-04-03T01:36:32.600Z,83
2023-04-03T01:37:39.074Z,83
2023-04-03T01:38:46.273Z,83
2023-04-03T01:39:52.903Z,83
2023-04-03T01:40:59.858Z,83
2023-04-03T01:42:07.003Z,83
2023-04-03T01:43:14.113Z,83
2023-04-03T01:44:21.300Z,83
2023-04-03T01:45:27.942Z,83
2023-04-03T01:46:35.014Z,83
2023-04-03T01:47:42.061Z,83
2023-04-03T01:48:49.198Z,83
2023-04-03T01:49:56.306Z,83
2023-04-03T01:51:02.896Z,83
2023-04-03T01:52:09.871Z,83
2023-04-03T01:54:24.274Z,83
2023-04-03T01:55:31.217Z,83
2023-04-03T01:56:37.921Z,83
2023-04-03T01:57:44.919Z,83
2023-04-03T01:58:52.007Z,83
2023-04-03T01:59:59.203Z,83
2023-04-03T02:01:08.519Z,83
2023-04-03T02:02:12.909Z,83
2023-04-03T02:03:20.053Z,83
2023-04-03T02:04:27.128Z,83
2023-04-03T02:05:34.132Z,83
2023-04-03T02:06:40.796Z,83
2023-04-03T02:07:47.885Z,83
2023-04-03T02:08:55.067Z,83
2023-04-03T02:10:02.029Z,83
2023-04-03T02:11:09.294Z,83
2023-04-03T02:12:16.756Z,83
2023-04-03T02:13:22.996Z,83
2023-04-03T02:14:29.905Z,83
2023-04-03T02:15:37.030Z,83
2023-04-03T02:16:44.213Z,83
2023-04-03T02:17:50.853Z,83
2023-04-03T02:18:57.892Z,83
2023-04-03T02:20:05.042Z,83
2023-04-03T02:21:12.115Z,83
2023-04-03T02:22:19.337Z,84
2023-04-03T02:23:25.879Z,84
2023-04-03T02:24:32.827Z,83
2023-04-03T02:25:39.916Z,84
2023-04-03T02:26:47.053Z,84
2023-04-03T02:29:00.811Z,84
2023-04-03T02:30:07.992Z,84
2023-04-03T02:31:15.085Z,84
2023-04-03T02:32:22.165Z,84
2023-04-03T02:33:29.135Z,84
2023-04-03T02:34:35.845Z,84
2023-04-03T02:35:42.979Z,84
2023-04-03T02:36:50.062Z,84
2023-04-03T02:37:57.217Z,84
2023-04-03T02:39:04.333Z,84
2023-04-03T02:40:10.719Z,84
2023-04-03T02:41:17.972Z,84
2023-04-03T02:42:25.078Z,84
2023-04-03T02:43:32.312Z,84
2023-04-03T02:44:39.286Z,84
2023-04-03T02:45:45.972Z,84
2023-04-03T02:46:52.972Z,84
2023-04-03T02:48:00.067Z,84
2023-04-03T02:49:07.171Z,84
2023-04-03T02:50:14.196Z,84
2023-04-03T02:51:20.811Z,84
2023-04-03T02:52:27.853Z,84
2023-04-03T02:53:34.984Z,84
2023-04-03T02:54:42.183Z,84
2023-04-03T02:55:49.281Z,84
2023-04-03T02:58:02.913Z,84
2023-04-03T02:59:10.181Z,84
2023-04-03T03:00:17.073Z,84
2023-04-03T03:01:24.468Z,84
2023-04-03T03:02:30.893Z,84
2023-04-03T03:03:37.870Z,84
2023-04-03T03:04:45.762Z,84
2023-04-03T03:05:52.098Z,84
2023-04-03T03:06:59.301Z,84
2023-04-03T03:08:05.913Z,84
2023-04-03T03:09:13.036Z,84
2023-04-03T03:10:20.171Z,84
2023-04-03T03:11:27.256Z,84
2023-04-03T03:12:34.231Z,84
2023-04-03T03:13:40.779Z,84
2023-04-03T03:14:48.027Z,84
2023-04-03T03:15:55.708Z,84
2023-04-03T03:17:02.249Z,84
2023-04-03T03:18:08.702Z,84
2023-04-03T03:19:15.932Z,84
2023-04-03T03:20:23.018Z,84
2023-04-03T03:21:30.076Z,84
2023-04-03T03:22:37.263Z,84
2023-04-03T03:23:44.394Z,84
2023-04-03T03:24:50.912Z,84
2023-04-03T03:25:57.884Z,84
2023-04-03T03:27:05.049Z,84
2023-04-03T03:28:12.141Z,84
2023-04-03T03:29:19.417Z,84
2023-04-03T03:30:25.929Z,84
2023-04-03T03:31:33.062Z,84
2023-04-03T03:32:40.057Z,84
2023-04-03T03:33:47.281Z,84
2023-04-03T03:34:54.265Z,84
2023-04-03T03:36:00.857Z,84
2023-04-03T03:37:08.073Z,84
2023-04-03T03:38:15.046Z,84
2023-04-03T03:39:22.186Z,84
2023-04-03T03:40:29.217Z,84
2023-04-03T03:41:35.947Z,84
2023-04-03T03:42:42.938Z,84
2023-04-03T03:43:50.079Z,84
2023-04-03T03:44:57.155Z,84
2023-04-03T03:46:03.810Z,84
2023-04-03T03:47:10.898Z,84
2023-04-03T03:48:17.918Z,84
2023-04-03T03:49:25.106Z,84
2023-04-03T03:50:32.277Z,84
2023-04-03T03:51:38.826Z,84
2023-04-03T03:52:45.845Z,84
2023-04-03T03:53:52.981Z,84
2023-04-03T03:55:00.186Z,84
2023-04-03T03:56:07.368Z,84
2023-04-03T03:57:13.809Z,84
2023-04-03T03:58:20.830Z,84
2023-04-03T03:59:28.055Z,84
2023-04-03T04:01:42.443Z,84
2023-04-03T04:02:48.941Z,84
2023-04-03T04:03:56.064Z,84
2023-04-03T04:05:03.041Z,84
2023-04-03T04:06:10.158Z,84
2023-04-03T04:07:17.345Z,84
2023-04-03T04:08:23.890Z,84
2023-04-03T04:09:31.048Z,84
2023-04-03T04:10:37.943Z,84
2023-04-03T04:11:45.203Z,84
2023-04-03T04:12:52.355Z,84
2023-04-03T04:13:58.855Z,84
2023-04-03T04:15:05.979Z,84
2023-04-03T04:16:13.121Z,84
2023-04-03T04:17:20.217Z,84
2023-04-03T04:18:27.328Z,84
2023-04-03T04:19:34.325Z,84
2023-04-03T04:20:40.971Z,84
2023-04-03T04:21:48.079Z,84
2023-04-03T04:22:55.266Z,84
2023-04-03T04:24:02.418Z,85
2023-04-03T04:25:08.887Z,85
2023-04-03T04:26:16.038Z,85
2023-04-03T04:27:23.141Z,85
2023-04-03T04:28:30.172Z,85
2023-04-03T04:29:37.345Z,85
2023-04-03T04:30:43.834Z,85
2023-04-03T04:31:50.996Z,85
2023-04-03T04:32:58.021Z,85
2023-04-03T04:34:05.157Z,85
2023-04-03T04:35:14.112Z,85
2023-04-03T04:36:19.007Z,85
2023-04-03T04:37:26.034Z,85
2023-04-03T04:38:33.027Z,85
2023-04-03T04:39:40.238Z,85
2023-04-03T04:40:47.249Z,85
2023-04-03T04:41:54.017Z,85
2023-04-03T04:43:00.982Z,85
2023-04-03T04:44:08.174Z,85
2023-04-03T04:45:15.350Z,85
2023-04-03T04:46:22.454Z,85
2023-04-03T04:47:28.965Z,85
2023-04-03T04:48:36.058Z,85
2023-04-03T04:49:43.015Z,85
2023-04-03T04:50:50.257Z,85
2023-04-03T04:51:57.385Z,85
2023-04-03T04:53:03.934Z,85
2023-04-03T04:54:10.955Z,85
2023-04-03T04:55:18.022Z,85
2023-04-03T04:56:25.253Z,85
2023-04-03T04:57:32.458Z,85
2023-04-03T04:58:38.804Z,85
2023-04-03T04:59:46.090Z,86
2023-04-03T05:00:53.138Z,86
2023-04-03T05:02:00.189Z,85
2023-04-03T05:03:07.392Z,85
2023-04-03T05:05:20.979Z,85
2023-04-03T05:06:28.134Z,85
2023-04-03T05:07:35.287Z,85
2023-04-03T05:08:42.402Z,86
2023-04-03T05:09:48.969Z,86
2023-04-03T05:10:56.460Z,85
2023-04-03T05:12:03.032Z,85
2023-04-03T05:13:10.146Z,85
2023-04-03T05:14:16.907Z,86
2023-04-03T05:15:23.864Z,85
2023-04-03T05:16:31.137Z,85
2023-04-03T05:17:38.336Z,85
2023-04-03T05:18:45.386Z,85
2023-04-03T05:19:52.358Z,85
2023-04-03T05:20:59.039Z,86
2023-04-03T05:22:06.088Z,86
2023-04-03T05:23:13.597Z,86
2023-04-03T05:24:20.210Z,85
2023-04-03T05:25:27.252Z,85
2023-04-03T05:26:33.996Z,85
2023-04-03T05:27:40.972Z,85
2023-04-03T05:28:48.237Z,85
2023-04-03T05:29:55.307Z,85
2023-04-03T05:31:01.784Z,85
2023-04-03T05:32:08.970Z,85
2023-04-03T05:33:15.995Z,85
2023-04-03T05:34:23.219Z,85
2023-04-03T05:35:30.313Z,85
2023-04-03T05:36:36.806Z,85
2023-04-03T05:37:43.927Z,85
2023-04-03T05:38:50.964Z,85
2023-04-03T05:39:58.105Z,85
2023-04-03T05:41:08.292Z,85
2023-04-03T05:42:11.800Z,85
2023-04-03T05:43:18.994Z,85
2023-04-03T05:44:26.057Z,85
2023-04-03T05:45:33.284Z,85
2023-04-03T05:46:40.312Z,86
2023-04-03T05:47:46.931Z,86
2023-04-03T05:48:54.054Z,85
2023-04-03T05:50:00.976Z,86
2023-04-03T05:51:08.495Z,86
2023-04-03T05:52:15.225Z,86
2023-04-03T05:53:21.913Z,86
2023-04-03T05:54:28.939Z,86
2023-04-03T05:55:36.402Z,86
2023-04-03T05:56:43.236Z,86
2023-04-03T05:57:50.378Z,86
2023-04-03T05:58:56.833Z,86
2023-04-03T06:00:04.068Z,86
2023-04-03T06:02:18.233Z,86
2023-04-03T06:03:25.598Z,86
2023-04-03T06:04:32.089Z,86
2023-04-03T06:05:39.279Z,86
2023-04-03T06:06:46.160Z,86
2023-04-03T06:09:01.992Z,86
2023-04-03T06:10:06.830Z,86
2023-04-03T06:11:14.156Z,86
2023-04-03T06:12:21.109Z,86
2023-04-03T06:13:28.315Z,86
2023-04-03T06:14:35.380Z,86
2023-04-03T06:15:41.957Z,86
2023-04-03T06:16:48.929Z,86
2023-04-03T06:17:56.268Z,86
2023-04-03T06:19:03.203Z,86
2023-04-03T06:20:10.376Z,86
2023-04-03T06:21:16.981Z,86
2023-04-03T06:22:24.104Z,86
2023-04-03T06:23:31.126Z,86
2023-04-03T06:24:38.291Z,86
2023-04-03T06:25:45.235Z,86
2023-04-03T06:26:52.524Z,86
2023-04-03T06:27:58.931Z,86
2023-04-03T06:29:06.263Z,86
2023-04-03T06:30:13.283Z,86
2023-04-03T06:31:20.303Z,86
2023-04-03T06:32:26.892Z,86
2023-04-03T06:33:34.106Z,86
2023-04-03T06:34:41.161Z,87
2023-04-03T06:35:48.339Z,87
2023-04-03T06:36:55.257Z,87
2023-04-03T06:38:02.016Z,87
2023-04-03T06:39:09.194Z,87
2023-04-03T06:40:16.232Z,87
2023-04-03T06:41:23.191Z,87
2023-04-03T06:42:30.260Z,87
2023-04-03T06:43:36.969Z,87
2023-04-03T06:44:43.991Z,87
2023-04-03T06:45:51.088Z,87
2023-04-03T06:46:58.253Z,87
2023-04-03T06:48:05.458Z,87
2023-04-03T06:49:11.948Z,87
2023-04-03T06:50:19.116Z,87
2023-04-03T06:51:26.255Z,87
2023-04-03T06:52:33.409Z,87
2023-04-03T06:53:40.344Z,87
2023-04-03T06:54:46.920Z,87
2023-04-03T06:55:54.228Z,87
2023-04-03T06:57:01.300Z,87
2023-04-03T06:58:08.391Z,87
2023-04-03T06:59:15.887Z,87
2023-04-03T07:00:22.095Z,87
2023-04-03T07:01:29.121Z,87
2023-04-03T07:02:36.330Z,87
2023-04-03T07:03:43.199Z,87
2023-04-03T07:04:50.326Z,87
2023-04-03T07:05:57.018Z,87
2023-04-03T07:07:04.159Z,87
2023-04-03T07:08:11.081Z,87
2023-04-03T07:09:18.425Z,87
2023-04-03T07:10:24.869Z,87
2023-04-03T07:12:39.129Z,87
2023-04-03T07:13:46.414Z,87
2023-04-03T07:14:53.439Z,87
2023-04-03T07:16:00.004Z,87
2023-04-03T07:17:06.931Z,87
2023-04-03T07:18:14.348Z,87
2023-04-03T07:19:21.171Z,87
2023-04-03T07:20:28.210Z,87
2023-04-03T07:21:35.417Z,87
2023-04-03T07:22:42.319Z,87
2023-04-03T07:24:56.340Z,87
2023-04-03T07:26:03.377Z,87
2023-04-03T07:27:09.800Z,88
2023-04-03T07:28:16.934Z,88
2023-04-03T07:30:31.352Z,87
2023-04-03T07:31:38.403Z,87
2023-04-03T07:32:45.199Z,88
2023-04-03T07:33:52.071Z,87
2023-04-03T07:35:00.219Z,87
2023-04-03T07:36:06.297Z,87
2023-04-03T07:37:13.472Z,87
2023-04-03T07:38:19.829Z,87
2023-04-03T07:39:27.073Z,87
2023-04-03T07:40:34.194Z,86
2023-04-03T07:41:41.278Z,86
2023-04-03T07:42:48.254Z,86
2023-04-03T07:43:54.848Z,86
2023-04-03T07:45:01.961Z,85
2023-04-03T07:46:09.246Z,85
2023-04-03T07:47:16.192Z,85
2023-04-03T07:48:23.287Z,85
2023-04-03T07:49:29.896Z,84
2023-04-03T07:50:37.108Z,84
2023-04-03T07:51:44.161Z,84
2023-04-03T07:52:51.162Z,84
2023-04-03T07:53:58.374Z,83
2023-04-03T07:55:05.020Z,83
2023-04-03T07:56:11.982Z,83
2023-04-03T07:57:19.272Z,83
2023-04-03T07:58:26.182Z,83
2023-04-03T07:59:33.590Z,82
2023-04-03T08:00:39.921Z,82
2023-04-03T08:01:46.997Z,82
2023-04-03T08:02:54.165Z,82
2023-04-03T08:04:01.554Z,81
2023-04-03T08:05:08.488Z,82
2023-04-03T08:06:16.380Z,82
2023-04-03T08:07:22.083Z,82
2023-04-03T08:08:29.199Z,82
2023-04-03T08:09:36.433Z,81
2023-04-03T08:10:42.873Z,81
2023-04-03T08:11:50.058Z,81
2023-04-03T08:12:57.128Z,81
2023-04-03T08:14:04.106Z,80
2023-04-03T08:16:18.484Z,79
2023-04-03T08:17:25.153Z,79
2023-04-03T08:18:32.108Z,79
2023-04-03T08:19:39.236Z,79
2023-04-03T08:20:46.455Z,80
2023-04-03T08:21:53.134Z,80
2023-04-03T08:23:00.034Z,80
2023-04-03T08:24:07.198Z,80
2023-04-03T08:25:14.121Z,80
2023-04-03T08:26:21.328Z,79
2023-04-03T08:27:27.968Z,79
2023-04-03T08:28:34.923Z,79
2023-04-03T08:29:42.075Z,79
2023-04-03T08:30:49.110Z,79
2023-04-03T08:31:56.356Z,79
2023-04-03T08:33:03.067Z,79
2023-04-03T08:34:10.571Z,79
2023-04-03T08:35:17.101Z,79
2023-04-03T08:36:24.175Z,78
2023-04-03T08:37:31.569Z,78
2023-04-03T08:38:37.837Z,78
2023-04-03T08:39:45.068Z,78
2023-04-03T08:40:52.044Z,77
2023-04-03T08:41:59.220Z,77
2023-04-03T08:43:06.332Z,76
2023-04-03T08:44:12.934Z,76
2023-04-03T08:45:20.019Z,76
2023-04-03T08:46:27.179Z,76
2023-04-03T08:47:34.185Z,76
2023-04-03T08:48:41.223Z,76
2023-04-03T08:49:48.096Z,76
2023-04-03T08:50:55.083Z,76
2023-04-03T08:52:02.074Z,76
2023-04-03T08:53:09.273Z,76
2023-04-03T08:54:16.359Z,76
2023-04-03T08:55:22.982Z,75
2023-04-03T08:56:30.034Z,74
2023-04-03T08:58:44.257Z,73
2023-04-03T08:59:51.284Z,72
2023-04-03T09:00:57.932Z,72
2023-04-03T09:02:05.220Z,71
2023-04-03T09:03:12.137Z,71
2023-04-03T09:04:19.233Z,71
2023-04-03T09:05:26.374Z,70
2023-04-03T09:06:32.984Z,70
2023-04-03T09:07:40.050Z,70
2023-04-03T09:08:47.280Z,70
2023-04-03T09:09:54.368Z,70
2023-04-03T09:11:01.360Z,69
2023-04-03T09:12:07.946Z,69
2023-04-03T09:13:14.974Z,69
2023-04-03T09:14:22.211Z,69
2023-04-03T09:15:38.422Z,69
2023-04-03T09:16:36.514Z,69
2023-04-03T09:17:43.161Z,69
2023-04-03T09:19:57.248Z,69
2023-04-03T09:21:04.351Z,69
2023-04-03T09:22:11.412Z,69
2023-04-03T09:23:17.977Z,69
2023-04-03T09:24:25.125Z,69
2023-04-03T09:25:32.333Z,68
2023-04-03T09:26:39.297Z,68
2023-04-03T09:27:45.928Z,68
2023-04-03T09:28:53.033Z,68
2023-04-03T09:30:00.036Z,67
2023-04-03T09:31:08.609Z,67
2023-04-03T09:32:14.220Z,67
2023-04-03T09:33:20.990Z,67
2023-04-03T09:34:27.976Z,67
2023-04-03T09:35:44.854Z,67
2023-04-03T09:36:42.114Z,67
2023-04-03T09:37:49.200Z,67
2023-04-03T09:38:55.799Z,66
2023-04-03T09:40:02.974Z,66
2023-04-03T09:41:10.102Z,66
2023-04-03T09:42:17.134Z,66
2023-04-03T09:43:24.216Z,66
2023-04-03T09:44:30.934Z,66
2023-04-03T09:45:37.886Z,66
2023-04-03T09:46:45.239Z,66
2023-04-03T09:47:52.123Z,66
2023-04-03T09:49:08.278Z,66
2023-04-03T09:50:05.936Z,66
2023-04-03T09:51:13.067Z,65
2023-04-03T09:52:20.174Z,65
2023-04-03T09:53:27.269Z,65
2023-04-03T09:54:34.460Z,65
2023-04-03T09:55:41.382Z,65
2023-04-03T09:56:47.907Z,64
2023-04-03T09:57:55.126Z,65
2023-04-03T09:59:02.278Z,64
2023-04-03T10:00:09.370Z,64
2023-04-03T10:01:15.877Z,64
2023-04-03T10:02:23.145Z,64
2023-04-03T10:03:30.662Z,64
2023-04-03T10:04:37.319Z,64
2023-04-03T10:05:44.355Z,64
2023-04-03T10:06:50.990Z,64
2023-04-03T10:08:03.553Z,64
2023-04-03T10:09:05.389Z,64
2023-04-03T10:10:12.517Z,63
2023-04-03T10:11:19.481Z,63
2023-04-03T10:12:25.866Z,63
2023-04-03T10:13:34.195Z,63
2023-04-03T10:14:40.251Z,63
2023-04-03T10:15:47.165Z,63
2023-04-03T10:16:54.309Z,63
2023-04-03T10:18:06.414Z,62
2023-04-03T10:19:08.059Z,62
2023-04-03T10:20:15.578Z,62
2023-04-03T10:21:27.553Z,62
2023-04-03T10:23:35.930Z,61
2023-04-03T10:24:43.046Z,62
2023-04-03T10:26:57.390Z,61
2023-04-03T10:28:04.259Z,61
2023-04-03T10:29:11.012Z,61
2023-04-03T10:30:18.186Z,61
2023-04-03T10:31:25.351Z,61
2023-04-03T10:32:32.550Z,61
2023-04-03T10:33:39.361Z,61
2023-04-03T10:34:54.717Z,60
2023-04-03T10:35:53.166Z,60
2023-04-03T10:37:00.273Z,60
2023-04-03T10:38:07.356Z,60
2023-04-03T10:39:13.988Z,60
2023-04-03T10:40:20.850Z,60
2023-04-03T10:41:28.484Z,59
2023-04-03T10:42:35.221Z,59
2023-04-03T10:43:42.312Z,59
2023-04-03T10:44:49.093Z,59
2023-04-03T10:45:56.056Z,58
2023-04-03T10:47:03.194Z,58
2023-04-03T10:48:10.237Z,57
2023-04-03T10:49:17.516Z,57
2023-04-03T10:50:23.870Z,57
2023-04-03T10:51:30.992Z,57
2023-04-03T10:52:38.839Z,57
2023-04-03T10:53:45.267Z,57
2023-04-03T10:54:52.357Z,56
2023-04-03T10:55:58.934Z,56
2023-04-03T10:57:12.674Z,56
2023-04-03T10:58:13.174Z,56
2023-04-03T10:59:20.139Z,55
2023-04-03T11:00:27.382Z,55
2023-04-03T11:01:34.000Z,55
2023-04-03T11:02:41.003Z,55
2023-04-03T11:03:48.030Z,55
2023-04-03T11:04:55.349Z,55
2023-04-03T11:06:02.439Z,54
2023-04-03T11:07:08.786Z,54
2023-04-03T11:08:16.142Z,54
2023-04-03T11:09:23.172Z,54
2023-04-03T11:10:30.220Z,54
2023-04-03T11:11:37.243Z,54
2023-04-03T11:12:44.175Z,54
2023-04-03T11:13:51.075Z,53
2023-04-03T11:14:58.222Z,53
2023-04-03T11:16:05.165Z,52
2023-04-03T11:17:12.263Z,53
2023-04-03T11:18:18.811Z,53
2023-04-03T11:19:26.040Z,53
2023-04-03T11:20:33.173Z,53
2023-04-03T11:21:40.228Z,53
2023-04-03T11:22:46.832Z,52
2023-04-03T11:23:53.817Z,52
2023-04-03T11:25:00.976Z,52
2023-04-03T11:26:08.041Z,52
2023-04-03T11:27:15.309Z,52
2023-04-03T11:28:21.757Z,52
2023-04-03T11:29:35.507Z,52
2023-04-03T11:30:35.964Z,52
2023-04-03T11:31:43.297Z,52
2023-04-03T11:32:50.255Z,52
2023-04-03T11:33:56.841Z,52
2023-04-03T11:35:03.889Z,52
2023-04-03T11:36:22.910Z,52
2023-04-03T11:37:44.997Z,52
2023-04-03T11:38:25.177Z,52
2023-04-03T11:39:31.880Z,52
2023-04-03T11:40:38.935Z,52
2023-04-03T11:41:45.996Z,52
2023-04-03T11:42:53.078Z,52
2023-04-03T11:44:00.258Z,52
2023-04-03T11:45:07.458Z,52
2023-04-03T11:46:13.971Z,51
2023-04-03T11:47:21.210Z,52
2023-04-03T11:48:28.092Z,51
2023-04-03T11:49:35.249Z,52
2023-04-03T11:50:41.970Z,52
2023-04-03T11:51:48.852Z,52
2023-04-03T11:52:56.157Z,52
2023-04-03T11:55:10.176Z,52
2023-04-03T11:56:16.781Z,52
2023-04-03T11:57:24.324Z,52
2023-04-03T11:58:31.061Z,52
2023-04-03T11:59:38.187Z,52
2023-04-03T12:00:45.364Z,52
2023-04-03T12:01:51.958Z,52
2023-04-03T12:02:59.262Z,51
2023-04-03T12:04:06.051Z,52
2023-04-03T12:05:13.118Z,52
2023-04-03T12:06:20.309Z,52
2023-04-03T12:07:26.928Z,52
2023-04-03T12:08:34.112Z,52
2023-04-03T12:09:41.163Z,52
2023-04-03T12:10:48.105Z,52
2023-04-03T12:11:55.421Z,53
2023-04-03T12:13:01.877Z,53
2023-04-03T12:14:09.002Z,54
2023-04-03T12:15:16.261Z,54
2023-04-03T12:16:23.297Z,55
2023-04-03T12:17:30.473Z,55
2023-04-03T12:18:36.965Z,55
2023-04-03T12:19:44.086Z,56
2023-04-03T12:20:51.008Z,56
2023-04-03T12:21:58.219Z,56
2023-04-03T12:23:06.258Z,57
2023-04-03T12:24:11.837Z,57
2023-04-03T12:25:18.949Z,57
2023-04-03T12:26:28.257Z,58
2023-04-03T12:27:33.148Z,58
2023-04-03T12:28:40.375Z,58
2023-04-03T12:29:46.976Z,58
2023-04-03T12:30:54.158Z,59
2023-04-03T12:32:01.019Z,59
2023-04-03T12:33:13.338Z,59
2023-04-03T12:34:15.358Z,59
2023-04-03T12:35:22.045Z,60
2023-04-03T12:36:28.910Z,60
2023-04-03T12:37:36.212Z,60
2023-04-03T12:38:43.153Z,61
2023-04-03T12:39:49.764Z,61
2023-04-03T12:40:56.997Z,61
2023-04-03T12:42:04.051Z,61
2023-04-03T12:43:11.023Z,61
2023-04-03T12:44:18.201Z,62
2023-04-03T12:45:24.938Z,62
2023-04-03T12:46:32.168Z,62
2023-04-03T12:47:39.291Z,62
2023-04-03T12:48:46.673Z,62
2023-04-03T12:49:53.305Z,62
2023-04-03T12:50:59.869Z,62
2023-04-03T12:52:06.972Z,62
2023-04-03T12:53:13.968Z,62
2023-04-03T12:54:21.035Z,62
2023-04-03T12:55:28.297Z,62
2023-04-03T12:56:34.851Z,62
2023-04-03T12:57:42.037Z,62
2023-04-03T12:58:49.100Z,62
2023-04-03T12:59:56.229Z,62
2023-04-03T13:01:03.216Z,62
2023-04-03T13:02:09.990Z,62
2023-04-03T13:03:17.220Z,62
2023-04-03T13:04:24.123Z,62
2023-04-03T13:05:31.260Z,62
2023-04-03T13:06:37.654Z,62
2023-04-03T13:07:44.912Z,62
2023-04-03T13:08:51.977Z,62
2023-04-03T13:09:59.056Z,62
2023-04-03T13:11:08.625Z,62
2023-04-03T13:12:13.335Z,62
2023-04-03T13:13:19.772Z,62
2023-04-03T13:14:27.084Z,62
2023-04-03T13:15:34.004Z,62
2023-04-03T13:16:41.276Z,62
2023-04-03T13:17:47.783Z,62
2023-04-03T13:18:54.811Z,62
2023-04-03T13:20:02.017Z,62
2023-04-03T13:21:09.059Z,62
2023-04-03T13:23:22.785Z,62
2023-04-03T13:24:29.911Z,62
2023-04-03T13:25:37.190Z,63
2023-04-03T13:26:44.142Z,63
2023-04-03T13:27:53.776Z,62
2023-04-03T13:29:05.171Z,63
2023-04-03T13:30:04.961Z,62
2023-04-03T13:31:11.908Z,62
2023-04-03T13:32:30.220Z,62
2023-04-03T13:34:32.917Z,63
2023-04-03T13:35:40.016Z,62
2023-04-03T13:36:47.028Z,63
2023-04-03T13:37:54.028Z,63
2023-04-03T13:39:01.217Z,63
2023-04-03T13:40:08.008Z,63
2023-04-03T13:41:14.992Z,63
2023-04-03T13:42:22.071Z,63
2023-04-03T13:43:29.149Z,63
2023-04-03T13:44:36.412Z,63
2023-04-03T13:45:43.111Z,63
2023-04-03T13:46:49.798Z,63
2023-04-03T13:47:57.220Z,63
2023-04-03T13:49:04.167Z,63
2023-04-03T13:50:11.270Z,63
2023-04-03T13:51:17.907Z,63
2023-04-03T13:52:25.364Z,63
2023-04-03T13:53:51.584Z,63
2023-04-03T13:54:39.055Z,63
2023-04-03T13:55:46.357Z,63
2023-04-03T13:56:53.080Z,63
2023-04-03T13:57:59.826Z,63
2023-04-03T13:59:06.984Z,63
2023-04-03T14:00:14.228Z,63
2023-04-03T14:01:21.469Z,63
2023-04-03T14:02:27.834Z,62
2023-04-03T14:03:34.850Z,62
2023-04-03T14:04:42.313Z,61
2023-04-03T14:05:49.167Z,61
2023-04-03T14:06:56.273Z,61
2023-04-03T14:08:02.780Z,61
2023-04-03T14:09:09.837Z,61
2023-04-03T14:10:17.137Z,60
2023-04-03T14:11:24.248Z,60
2023-04-03T14:12:32.339Z,60
2023-04-03T14:13:37.879Z,60
2023-04-03T14:14:44.935Z,60
2023-04-03T14:15:52.339Z,60
2023-04-03T14:16:59.082Z,60
2023-04-03T14:18:07.866Z,60
2023-04-03T14:19:12.927Z,60
2023-04-03T14:20:19.918Z,60
2023-04-03T14:21:26.961Z,60
2023-04-03T14:22:34.690Z,60
2023-04-03T14:23:41.384Z,60
2023-04-03T14:24:47.920Z,60
2023-04-03T14:25:55.101Z,60
2023-04-03T14:27:02.138Z,60
2023-04-03T14:28:09.248Z,61
2023-04-03T14:29:16.343Z,61
2023-04-03T14:30:22.975Z,61
2023-04-03T14:31:30.107Z,61
2023-04-03T14:32:37.200Z,61
2023-04-03T14:33:44.251Z,61
2023-04-03T14:34:50.913Z,61
2023-04-03T14:35:58.083Z,61
2023-04-03T14:38:12.139Z,61
2023-04-03T14:39:19.145Z,61
2023-04-03T14:40:25.832Z,61
2023-04-03T14:41:33.005Z,61
2023-04-03T14:42:39.875Z,61
2023-04-03T14:43:47.072Z,61
2023-04-03T14:44:54.156Z,61
2023-04-03T14:46:00.785Z,62
2023-04-03T14:47:11.918Z,62
2023-04-03T14:48:15.083Z,62
2023-04-03T14:49:22.026Z,62
2023-04-03T14:51:35.810Z,62
2023-04-03T14:52:42.817Z,62
2023-04-03T14:53:49.888Z,62
2023-04-03T14:54:57.037Z,62
2023-04-03T14:56:04.105Z,62
2023-04-03T14:57:10.716Z,63
2023-04-03T14:58:17.891Z,63
2023-04-03T14:59:25.000Z,63
2023-04-03T15:00:32.082Z,63
2023-04-03T15:01:39.300Z,63
2023-04-03T15:02:45.941Z,63
2023-04-03T15:03:53.056Z,63
2023-04-03T15:05:00.009Z,63
2023-04-03T15:06:07.180Z,64
2023-04-03T15:07:14.169Z,64
2023-04-03T15:08:20.828Z,64
2023-04-03T15:09:27.932Z,64
2023-04-03T15:10:35.057Z,64
2023-04-03T15:11:42.117Z,64
2023-04-03T15:12:49.256Z,64
2023-04-03T15:13:55.879Z,64
2023-04-03T15:15:03.807Z,64
2023-04-03T15:16:10.210Z,64
2023-04-03T15:17:17.053Z,64
2023-04-03T15:18:24.320Z,64
2023-04-03T15:19:30.711Z,64
2023-04-03T15:20:38.268Z,64
2023-04-03T15:21:45.109Z,64
2023-04-03T15:22:52.190Z,64
2023-04-03T15:24:00.985Z,64
2023-04-03T15:25:05.933Z,64
2023-04-03T15:26:12.870Z,64
2023-04-03T15:27:19.933Z,63
2023-04-03T15:28:27.238Z,63
2023-04-03T15:29:33.657Z,63
2023-04-03T15:30:41.260Z,63
2023-04-03T15:31:48.002Z,63
2023-04-03T15:32:55.023Z,64
2023-04-03T15:34:02.290Z,64
2023-04-03T15:35:08.650Z,64
2023-04-03T15:37:22.960Z,64
2023-04-03T15:38:30.047Z,64
2023-04-03T15:39:37.228Z,64
2023-04-03T15:41:50.884Z,64
2023-04-03T15:42:57.997Z,64
2023-04-03T15:44:05.098Z,64
2023-04-03T15:45:12.439Z,64
2023-04-03T15:46:18.880Z,64
2023-04-03T15:47:26.115Z,64
2023-04-03T15:48:32.973Z,64
2023-04-03T15:49:40.062Z,64
2023-04-03T15:50:47.230Z,64
2023-04-03T15:51:53.854Z,64
2023-04-03T15:53:00.850Z,64
2023-04-03T15:54:07.882Z,64
2023-04-03T15:55:15.122Z,64
2023-04-03T15:56:22.119Z,64
2023-04-03T15:57:28.703Z,64
2023-04-03T15:58:35.988Z,64
2023-04-03T15:59:43.569Z,64
2023-04-03T16:00:50.025Z,64
2023-04-03T16:01:57.381Z,64
2023-04-03T16:03:03.908Z,64
2023-04-03T16:04:11.070Z,64
2023-04-03T16:05:17.969Z,64
2023-04-03T16:06:25.021Z,64
2023-04-03T16:07:32.287Z,64
2023-04-03T16:08:38.774Z,64
2023-04-03T16:09:46.327Z,64
2023-04-03T16:10:53.088Z,64
2023-04-03T16:12:00.143Z,64
2023-04-03T16:13:07.249Z,64
2023-04-03T16:14:13.685Z,64
2023-04-03T16:15:20.783Z,64
2023-04-03T16:16:27.998Z,64
2023-04-03T16:17:35.228Z,64
2023-04-03T16:19:48.690Z,64
2023-04-03T16:20:55.839Z,64
2023-04-03T16:22:02.967Z,64
2023-04-03T16:23:10.166Z,64